Terminal Aerodrome Forecast
Issued by NWS Missoula, MT

Home | Current Version | Previous Version | Text Only | Print | Product List | Glossary On
Versions: 1 2 3 4 5 6 7 8 9 10 11 12 13 14
000
FTUS45 KMSO 282338
TAFGPI
TAF
KGPI 282338Z 2900/2924 06010KT P6SM VCSH OVC080
     FM290400 01008KT P6SM BKN080
     FM291500 02007KT P6SM VCSH OVC050=

USA.gov is the U.S. government's official web portal to all federal, state and local government web resources and services.